Time;durP1;ratioP1;P1;durP2;ratioP2;P2;SDS_P1;SDS_P2;PMS_P1;PMS_P2;Temp;Humidity;BMP_temperature;BMP_pressure;BME280_temperature;BME280_humidity;BME280_pressure;Samples;Min_cycle;Max_cycle;Signal;HPM_P1;HPM_P2
2023/09/12 00:01:17;;;;;;;35.65;20.75;;;;;;;;;;5056748;28;20037;-67
2023/09/12 00:03:42;;;;;;;32.72;19.17;;;;;;;;;;5073153;28;20051;-68
2023/09/12 00:06:08;;;;;;;34.00;21.00;;;;;;;;;;5056291;28;20032;-66
2023/09/12 00:08:34;;;;;;;30.98;18.95;;;;;;;;;;5089433;28;20105;-68
2023/09/12 00:11:01;;;;;;;34.83;19.13;;;;;;;;;;5093540;28;20117;-66
2023/09/12 00:13:26;;;;;;;34.75;19.45;;;;;;;;;;5076951;28;20056;-67
2023/09/12 00:15:52;;;;;;;37.80;20.55;;;;;;;;;;5076636;28;20076;-66
2023/09/12 00:18:18;;;;;;;31.92;19.00;;;;;;;;;;5076789;28;20093;-66
2023/09/12 00:20:44;;;;;;;40.10;20.20;;;;;;;;;;5094873;28;20097;-67
2023/09/12 00:23:09;;;;;;;38.05;20.58;;;;;;;;;;5110756;28;20036;-67
2023/09/12 00:25:35;;;;;;;34.20;19.85;;;;;;;;;;5076695;28;20073;-67
2023/09/12 00:28:00;;;;;;;33.50;20.10;;;;;;;;;;5076630;28;20131;-67
2023/09/12 00:30:26;;;;;;;36.33;20.20;;;;;;;;;;5110664;28;20489;-67
2023/09/12 00:32:52;;;;;;;32.92;20.17;;;;;;;;;;5110237;28;20040;-67
2023/09/12 00:35:18;;;;;;;37.53;20.00;;;;;;;;;;5077002;28;20435;-67
2023/09/12 00:37:44;;;;;;;32.78;20.27;;;;;;;;;;5095164;28;20035;-69
2023/09/12 00:40:09;;;;;;;30.70;19.33;;;;;;;;;;5095011;28;20039;-67
2023/09/12 00:42:35;;;;;;;36.55;21.00;;;;;;;;;;5093097;28;20165;-69
2023/09/12 00:45:01;;;;;;;38.20;20.25;;;;;;;;;;5093257;28;20044;-68
2023/09/12 00:47:28;;;;;;;36.85;20.88;;;;;;;;;;5076268;28;20032;-67
2023/09/12 00:49:55;;;;;;;35.13;21.17;;;;;;;;;;5076511;28;20109;-67
2023/09/12 00:52:21;;;;;;;40.95;21.13;;;;;;;;;;5076133;28;20043;-67
2023/09/12 00:54:47;;;;;;;35.60;19.67;;;;;;;;;;5092918;28;20047;-67
2023/09/12 00:57:13;;;;;;;36.53;19.65;;;;;;;;;;5093683;28;20032;-67
2023/09/12 00:59:38;;;;;;;37.58;20.63;;;;;;;;;;5093750;28;20067;-67
2023/09/12 01:02:04;;;;;;;46.55;20.10;;;;;;;;;;5093179;28;20036;-68
2023/09/12 01:04:30;;;;;;;38.72;20.35;;;;;;;;;;5076783;28;20044;-66
2023/09/12 01:06:56;;;;;;;50.30;21.58;;;;;;;;;;5094861;28;20052;-66
2023/09/12 01:09:23;;;;;;;54.13;22.02;;;;;;;;;;5076698;28;20096;-66
2023/09/12 01:11:48;;;;;;;64.25;21.88;;;;;;;;;;5093452;28;20052;-66
2023/09/12 01:14:14;;;;;;;54.45;21.42;;;;;;;;;;5093796;28;20176;-66
2023/09/12 01:16:40;;;;;;;55.40;22.05;;;;;;;;;;5076155;28;20028;-66
2023/09/12 01:19:06;;;;;;;50.45;22.40;;;;;;;;;;5092621;28;20159;-68
2023/09/12 01:21:38;;;;;;;50.63;22.42;;;;;;;;;;5093362;28;20043;-67
2023/09/12 01:24:10;;;;;;;54.55;21.42;;;;;;;;;;5093150;28;20032;-67
2023/09/12 01:26:39;;;;;;;42.72;22.10;;;;;;;;;;5093228;28;20447;-67
2023/09/12 01:29:06;;;;;;;53.60;22.45;;;;;;;;;;5092285;28;20074;-68
2023/09/12 01:31:33;;;;;;;56.15;22.30;;;;;;;;;;5075066;28;20024;-68
2023/09/12 01:34:08;;;;;;;54.33;21.73;;;;;;;;;;5092990;28;20079;-67
2023/09/12 01:36:34;;;;;;;47.58;22.23;;;;;;;;;;5092151;28;20504;-68
2023/09/12 01:39:00;;;;;;;60.80;21.60;;;;;;;;;;5092045;28;20082;-68
2023/09/12 01:41:26;;;;;;;49.67;21.88;;;;;;;;;;5091796;28;20063;-68
2023/09/12 01:43:52;;;;;;;42.72;21.00;;;;;;;;;;5075083;28;20047;-68
2023/09/12 01:46:18;;;;;;;47.60;22.60;;;;;;;;;;5092215;28;20040;-69
2023/09/12 01:48:44;;;;;;;39.35;22.05;;;;;;;;;;5075362;28;20096;-67
2023/09/12 01:51:11;;;;;;;45.25;22.42;;;;;;;;;;5091842;28;20110;-67
2023/09/12 01:53:37;;;;;;;46.15;22.38;;;;;;;;;;5092312;28;20058;-69
2023/09/12 01:56:03;;;;;;;45.13;22.00;;;;;;;;;;5092400;28;20032;-68
2023/09/12 01:58:30;;;;;;;46.72;23.17;;;;;;;;;;5112303;28;20124;-67
2023/09/12 02:00:57;;;;;;;54.47;24.00;;;;;;;;;;5097248;28;20060;-68
2023/09/12 02:03:23;;;;;;;49.67;23.02;;;;;;;;;;5077053;28;20071;-67
2023/09/12 02:05:48;;;;;;;49.70;24.15;;;;;;;;;;5091922;28;20136;-70
2023/09/12 02:08:14;;;;;;;46.42;22.60;;;;;;;;;;5092944;28;20474;-67
2023/09/12 02:10:40;;;;;;;45.80;23.15;;;;;;;;;;5091320;28;20380;-67
2023/09/12 02:13:05;;;;;;;47.38;24.67;;;;;;;;;;5091610;28;20043;-66
2023/09/12 02:15:32;;;;;;;44.83;23.13;;;;;;;;;;5108298;28;20119;-67
2023/09/12 02:17:59;;;;;;;39.58;21.50;;;;;;;;;;5091420;28;20051;-67
2023/09/12 02:20:24;;;;;;;46.72;23.10;;;;;;;;;;5092037;28;20036;-67
2023/09/12 02:22:50;;;;;;;46.70;24.02;;;;;;;;;;5076277;28;20036;-68
2023/09/12 02:25:17;;;;;;;43.58;22.42;;;;;;;;;;5095719;28;20059;-67
2023/09/12 02:27:43;;;;;;;44.03;22.88;;;;;;;;;;5092922;28;20470;-67
2023/09/12 02:30:09;;;;;;;43.63;22.30;;;;;;;;;;5093918;28;20075;-67
2023/09/12 02:32:35;;;;;;;51.47;23.00;;;;;;;;;;5093154;28;20077;-68
2023/09/12 02:35:02;;;;;;;53.05;24.55;;;;;;;;;;5108900;28;20062;-68
2023/09/12 02:37:30;;;;;;;52.13;25.08;;;;;;;;;;5092025;28;20177;-67
2023/09/12 02:39:56;;;;;;;51.75;24.00;;;;;;;;;;5091102;28;20123;-68
2023/09/12 02:42:21;;;;;;;48.63;24.33;;;;;;;;;;5091154;28;20454;-67
2023/09/12 02:44:47;;;;;;;47.63;23.20;;;;;;;;;;5092253;28;20382;-67
2023/09/12 02:47:13;;;;;;;51.10;23.63;;;;;;;;;;5091276;28;20036;-67
2023/09/12 02:49:39;;;;;;;52.10;24.60;;;;;;;;;;5091281;28;20050;-67
2023/09/12 02:52:05;;;;;;;55.78;23.65;;;;;;;;;;5092116;28;20032;-68
2023/09/12 02:54:31;;;;;;;52.20;23.60;;;;;;;;;;5092036;28;20378;-67
2023/09/12 02:56:56;;;;;;;58.72;23.88;;;;;;;;;;5091197;28;20031;-67
2023/09/12 02:59:22;;;;;;;55.65;25.08;;;;;;;;;;5091181;28;20050;-67
2023/09/12 03:01:48;;;;;;;73.88;27.25;;;;;;;;;;5074281;28;20028;-68
2023/09/12 03:04:14;;;;;;;50.83;24.95;;;;;;;;;;5074414;28;20051;-67
2023/09/12 03:06:43;;;;;;;55.63;25.95;;;;;;;;;;5074247;28;20036;-67
2023/09/12 03:09:11;;;;;;;63.55;25.45;;;;;;;;;;5073831;28;20097;-68
2023/09/12 03:11:36;;;;;;;64.13;25.08;;;;;;;;;;5090323;28;20055;-66
2023/09/12 03:14:02;;;;;;;60.65;25.33;;;;;;;;;;5073806;28;20136;-67
2023/09/12 03:16:28;;;;;;;56.53;24.15;;;;;;;;;;5090752;28;20071;-68
2023/09/12 03:18:53;;;;;;;66.50;24.75;;;;;;;;;;5057097;28;20047;-66
2023/09/12 03:21:19;;;;;;;65.93;24.73;;;;;;;;;;5090650;28;20040;-65
2023/09/12 03:23:45;;;;;;;63.15;24.42;;;;;;;;;;5107510;28;20055;-66
2023/09/12 03:26:10;;;;;;;61.70;24.58;;;;;;;;;;5073630;28;20040;-67
2023/09/12 03:28:38;;;;;;;53.63;23.55;;;;;;;;;;5090493;28;20036;-65
2023/09/12 03:31:05;;;;;;;44.78;22.98;;;;;;;;;;5090409;28;20097;-66
2023/09/12 03:33:32;;;;;;;51.53;24.00;;;;;;;;;;5092578;28;20039;-67
2023/09/12 03:35:58;;;;;;;52.22;22.58;;;;;;;;;;5079391;28;20066;-67
2023/09/12 03:38:23;;;;;;;51.88;22.70;;;;;;;;;;5113094;28;20434;-71
2023/09/12 03:40:49;;;;;;;44.35;22.83;;;;;;;;;;5091511;28;20125;-68
2023/09/12 03:43:15;;;;;;;52.83;23.67;;;;;;;;;;5074566;28;20043;-66
2023/09/12 03:45:41;;;;;;;50.75;22.83;;;;;;;;;;5074314;28;20047;-66
2023/09/12 03:48:07;;;;;;;46.90;21.63;;;;;;;;;;5074332;28;20032;-65
2023/09/12 03:50:32;;;;;;;53.90;22.48;;;;;;;;;;5073878;28;20033;-65
2023/09/12 03:52:58;;;;;;;44.40;22.60;;;;;;;;;;5073649;28;20390;-66
2023/09/12 03:55:24;;;;;;;42.78;21.55;;;;;;;;;;5074948;28;20048;-65
2023/09/12 03:57:50;;;;;;;40.50;20.67;;;;;;;;;;5074856;28;20106;-65
2023/09/12 04:00:15;;;;;;;50.55;22.33;;;;;;;;;;5074962;28;20028;-65
2023/09/12 04:02:45;;;;;;;50.97;20.60;;;;;;;;;;5073598;28;20080;-65
2023/09/12 04:05:11;;;;;;;45.85;21.17;;;;;;;;;;5073767;28;20044;-66
2023/09/12 04:07:37;;;;;;;47.92;21.40;;;;;;;;;;5056870;28;20041;-65
2023/09/12 04:10:03;;;;;;;54.17;21.00;;;;;;;;;;5073349;28;20078;-65
2023/09/12 04:12:29;;;;;;;43.15;20.65;;;;;;;;;;5073753;28;20050;-65
2023/09/12 04:14:55;;;;;;;49.90;20.42;;;;;;;;;;5075188;28;20131;-65
2023/09/12 04:17:20;;;;;;;49.42;19.98;;;;;;;;;;5073865;28;20245;-65
2023/09/12 04:19:46;;;;;;;40.53;19.77;;;;;;;;;;5073751;28;20051;-65
2023/09/12 04:22:12;;;;;;;51.53;20.65;;;;;;;;;;5056735;28;20036;-66
2023/09/12 04:24:38;;;;;;;45.28;20.20;;;;;;;;;;5073567;28;20057;-66
2023/09/12 04:27:04;;;;;;;50.42;20.48;;;;;;;;;;5073530;28;20368;-66
2023/09/12 04:29:32;;;;;;;49.50;20.15;;;;;;;;;;5074549;28;20131;-67
2023/09/12 04:31:59;;;;;;;45.03;20.42;;;;;;;;;;5056835;28;20036;-66
2023/09/12 04:34:26;;;;;;;43.70;20.83;;;;;;;;;;5091220;28;20040;-67
2023/09/12 04:36:52;;;;;;;46.88;20.27;;;;;;;;;;5058496;28;20098;-65
2023/09/12 04:39:18;;;;;;;46.00;21.27;;;;;;;;;;5090706;28;20032;-66
2023/09/12 04:41:43;;;;;;;47.22;19.45;;;;;;;;;;5073716;28;20173;-65
2023/09/12 04:44:10;;;;;;;57.38;21.92;;;;;;;;;;5073669;28;20071;-67
2023/09/12 04:46:37;;;;;;;53.17;21.15;;;;;;;;;;5072335;28;20439;-66
2023/09/12 04:49:03;;;;;;;55.20;21.35;;;;;;;;;;5059881;28;20024;-65
2023/09/12 04:51:29;;;;;;;66.85;21.40;;;;;;;;;;5097353;28;20067;-66
2023/09/12 04:53:55;;;;;;;59.90;20.77;;;;;;;;;;5095465;28;20048;-68
2023/09/12 04:56:24;;;;;;;49.15;20.63;;;;;;;;;;5076955;28;20050;-66
2023/09/12 04:58:49;;;;;;;50.13;19.92;;;;;;;;;;5076790;28;20028;-66
2023/09/12 05:01:16;;;;;;;50.70;20.08;;;;;;;;;;5093087;28;20085;-66
2023/09/12 05:03:43;;;;;;;51.88;20.20;;;;;;;;;;5059282;28;20406;-66
2023/09/12 05:06:10;;;;;;;46.83;20.95;;;;;;;;;;5092140;28;20032;-67
2023/09/12 05:08:36;;;;;;;52.08;20.67;;;;;;;;;;5074190;28;20089;-66
2023/09/12 05:11:05;;;;;;;53.95;20.55;;;;;;;;;;5090679;28;20056;-66
2023/09/12 05:13:31;;;;;;;54.72;20.45;;;;;;;;;;5093412;28;20036;-66
2023/09/12 05:15:57;;;;;;;56.75;20.02;;;;;;;;;;5093921;28;20440;-66
2023/09/12 05:18:24;;;;;;;55.25;20.58;;;;;;;;;;5076647;28;20043;-66
2023/09/12 05:20:49;;;;;;;55.92;21.48;;;;;;;;;;5093483;28;20185;-66
2023/09/12 05:23:15;;;;;;;57.58;21.35;;;;;;;;;;5092862;28;20441;-67
2023/09/12 05:25:42;;;;;;;60.38;23.23;;;;;;;;;;5092935;28;20044;-66
2023/09/12 05:28:08;;;;;;;59.53;21.35;;;;;;;;;;5092776;28;20350;-66
2023/09/12 05:30:33;;;;;;;49.67;21.75;;;;;;;;;;5093671;28;20085;-66
2023/09/12 05:33:00;;;;;;;46.53;21.80;;;;;;;;;;5092250;28;20485;-67
2023/09/12 05:35:25;;;;;;;44.20;22.23;;;;;;;;;;5072020;28;20044;-66
2023/09/12 05:37:51;;;;;;;42.75;22.67;;;;;;;;;;5055497;28;20042;-66
2023/09/12 05:40:18;;;;;;;41.08;22.08;;;;;;;;;;5089067;28;20111;-66
2023/09/12 05:42:45;;;;;;;39.53;21.40;;;;;;;;;;5089009;28;20040;-66
2023/09/12 05:45:11;;;;;;;36.00;19.40;;;;;;;;;;5088917;28;20032;-66
2023/09/12 05:47:37;;;;;;;34.85;18.83;;;;;;;;;;5076086;28;20104;-67
2023/09/12 05:50:06;;;;;;;33.97;18.92;;;;;;;;;;5093284;28;20031;-66
2023/09/12 05:52:33;;;;;;;29.80;18.45;;;;;;;;;;5075627;28;20059;-66
2023/09/12 05:55:00;;;;;;;30.75;18.00;;;;;;;;;;5092182;28;20028;-66
2023/09/12 05:57:26;;;;;;;27.88;17.63;;;;;;;;;;5073405;28;20040;-66
2023/09/12 05:59:52;;;;;;;34.05;17.33;;;;;;;;;;5054153;28;20529;-67
2023/09/12 06:02:18;;;;;;;35.25;17.75;;;;;;;;;;5057536;28;20047;-66
2023/09/12 06:04:46;;;;;;;28.70;16.60;;;;;;;;;;5090827;28;20477;-67
2023/09/12 06:07:12;;;;;;;33.08;17.05;;;;;;;;;;5092591;28;20043;-67
2023/09/12 06:09:37;;;;;;;34.47;16.05;;;;;;;;;;5074629;28;20458;-67
2023/09/12 06:12:03;;;;;;;26.25;15.23;;;;;;;;;;5092387;28;20036;-66
2023/09/12 06:14:29;;;;;;;29.45;16.02;;;;;;;;;;5091948;28;20048;-67
2023/09/12 06:16:55;;;;;;;28.70;14.77;;;;;;;;;;5108609;28;20408;-69
2023/09/12 06:19:20;;;;;;;26.85;15.18;;;;;;;;;;5074971;28;20484;-68
2023/09/12 06:21:46;;;;;;;25.90;14.65;;;;;;;;;;5092398;28;20036;-68
2023/09/12 06:24:12;;;;;;;28.05;14.90;;;;;;;;;;5058198;28;20052;-69
2023/09/12 06:26:38;;;;;;;28.95;14.57;;;;;;;;;;5092606;28;20044;-69
2023/09/12 06:29:04;;;;;;;25.23;13.65;;;;;;;;;;5092348;28;20462;-70
2023/09/12 06:31:31;;;;;;;25.90;13.30;;;;;;;;;;5074215;28;20152;-68
2023/09/12 06:33:58;;;;;;;25.25;13.38;;;;;;;;;;5091330;28;20420;-69
2023/09/12 06:36:24;;;;;;;26.42;13.70;;;;;;;;;;5095632;28;20413;-70
2023/09/12 06:38:50;;;;;;;25.90;13.15;;;;;;;;;;5057322;28;20105;-69
2023/09/12 06:41:18;;;;;;;24.02;13.00;;;;;;;;;;5074314;28;20089;-68
2023/09/12 06:43:44;;;;;;;23.35;13.70;;;;;;;;;;5092379;28;20035;-68
2023/09/12 06:46:10;;;;;;;25.70;13.77;;;;;;;;;;5074108;28;20040;-69
2023/09/12 06:48:35;;;;;;;25.15;13.07;;;;;;;;;;5073899;28;20044;-70
2023/09/12 06:51:05;;;;;;;23.00;13.45;;;;;;;;;;5092317;28;20040;-69
2023/09/12 06:53:31;;;;;;;26.35;14.20;;;;;;;;;;5073840;28;20076;-70
2023/09/12 06:55:57;;;;;;;24.10;12.88;;;;;;;;;;5091794;28;20043;-70
2023/09/12 06:58:24;;;;;;;29.25;14.50;;;;;;;;;;5090881;28;20054;-69
2023/09/12 07:00:50;;;;;;;27.55;15.10;;;;;;;;;;5074089;28;20020;-69
2023/09/12 07:03:16;;;;;;;30.23;14.57;;;;;;;;;;5090473;28;20047;-69
2023/09/12 07:05:43;;;;;;;31.25;14.27;;;;;;;;;;5073643;28;20105;-72
2023/09/12 07:08:09;;;;;;;32.47;15.23;;;;;;;;;;5074059;28;20459;-69
2023/09/12 07:10:35;;;;;;;28.50;15.43;;;;;;;;;;5091453;28;20060;-68
2023/09/12 07:13:02;;;;;;;29.23;15.52;;;;;;;;;;5077807;28;20105;-69
2023/09/12 07:15:28;;;;;;;33.20;15.13;;;;;;;;;;5094448;28;20048;-70
2023/09/12 07:17:56;;;;;;;42.72;20.98;;;;;;;;;;5074542;28;20040;-69
2023/09/12 07:20:23;;;;;;;27.85;15.18;;;;;;;;;;5058161;28;20044;-69
2023/09/12 07:22:50;;;;;;;23.40;15.90;;;;;;;;;;5074557;28;20025;-70
2023/09/12 07:25:18;;;;;;;29.60;15.18;;;;;;;;;;5074477;28;20041;-69
2023/09/12 07:27:43;;;;;;;21.75;15.10;;;;;;;;;;5074605;28;20079;-69
2023/09/12 07:30:10;;;;;;;38.08;16.15;;;;;;;;;;5057940;28;20050;-70
2023/09/12 07:32:36;;;;;;;24.42;15.02;;;;;;;;;;5074268;28;20036;-71
2023/09/12 07:35:02;;;;;;;22.17;13.80;;;;;;;;;;5058009;28;20040;-71
2023/09/12 07:37:29;;;;;;;19.20;13.23;;;;;;;;;;5057866;28;20114;-71
2023/09/12 07:39:54;;;;;;;17.02;13.00;;;;;;;;;;5073827;28;20474;-71
2023/09/12 07:42:21;;;;;;;19.33;13.18;;;;;;;;;;5057373;28;20473;-71
2023/09/12 07:44:47;;;;;;;20.95;12.98;;;;;;;;;;5069492;28;20075;-71
2023/09/12 07:47:14;;;;;;;23.25;12.68;;;;;;;;;;5036215;28;20040;-72
2023/09/12 07:49:40;;;;;;;13.95;11.27;;;;;;;;;;5053149;28;20052;-72
2023/09/12 07:52:06;;;;;;;16.40;12.13;;;;;;;;;;5070073;28;20029;-70
2023/09/12 07:54:32;;;;;;;14.00;11.50;;;;;;;;;;5036674;28;20563;-70
2023/09/12 07:56:58;;;;;;;14.93;11.85;;;;;;;;;;5070095;28;20132;-70
2023/09/12 07:59:24;;;;;;;22.67;12.40;;;;;;;;;;5038002;28;20457;-71
2023/09/12 08:01:51;;;;;;;18.55;11.27;;;;;;;;;;5037187;28;20028;-71
2023/09/12 08:04:17;;;;;;;18.70;11.75;;;;;;;;;;5053064;28;20570;-70
2023/09/12 08:06:42;;;;;;;20.30;10.48;;;;;;;;;;5036046;28;20123;-70
2023/09/12 08:09:09;;;;;;;16.92;10.18;;;;;;;;;;5052778;28;20115;-70
2023/09/12 08:11:36;;;;;;;14.68;8.77;;;;;;;;;;5035763;28;20463;-71
2023/09/12 08:14:02;;;;;;;9.10;8.20;;;;;;;;;;5052736;28;20136;-70
2023/09/12 08:16:28;;;;;;;12.80;7.95;;;;;;;;;;5069220;28;20136;-72
2023/09/12 08:18:54;;;;;;;16.55;8.75;;;;;;;;;;5052345;28;20037;-71
2023/09/12 08:21:20;;;;;;;8.90;7.85;;;;;;;;;;5055650;28;20510;-70
2023/09/12 08:23:46;;;;;;;11.63;7.65;;;;;;;;;;5073372;28;20134;-71
2023/09/12 08:26:11;;;;;;;16.13;8.15;;;;;;;;;;5056784;28;20064;-72
2023/09/12 08:28:37;;;;;;;14.70;7.70;;;;;;;;;;5056690;28;20040;-70
2023/09/12 08:31:02;;;;;;;13.82;7.53;;;;;;;;;;5073171;28;20029;-71
2023/09/12 08:33:28;;;;;;;9.52;7.20;;;;;;;;;;5073435;28;20412;-71
2023/09/12 08:35:54;;;;;;;19.85;7.72;;;;;;;;;;5059384;28;20043;-71
2023/09/12 08:38:20;;;;;;;20.02;8.73;;;;;;;;;;5059356;28;20051;-71
2023/09/12 08:40:50;;;;;;;14.43;6.63;;;;;;;;;;5072906;28;20032;-70
2023/09/12 08:43:17;;;;;;;16.48;6.75;;;;;;;;;;5074133;28;20055;-71
2023/09/12 08:45:46;;;;;;;14.35;6.93;;;;;;;;;;5056281;28;20037;-70
2023/09/12 08:48:12;;;;;;;;;;;;;;;;;;5073461;28;20049;-70
2023/09/12 08:50:38;;;;;;;11.88;5.68;;;;;;;;;;5050993;28;20053;-71
2023/09/12 08:53:04;;;;;;;13.30;6.03;;;;;;;;;;5073799;28;20075;-71
2023/09/12 08:55:31;;;;;;;9.93;5.50;;;;;;;;;;5076160;28;20024;-69
2023/09/12 08:57:58;;;;;;;12.07;5.57;;;;;;;;;;5075700;28;20417;-70
2023/09/12 09:00:24;;;;;;;9.32;5.60;;;;;;;;;;5092656;28;20039;-69
2023/09/12 09:02:50;;;;;;;14.65;5.80;;;;;;;;;;5075498;28;20043;-71
2023/09/12 09:05:17;;;;;;;9.75;5.95;;;;;;;;;;5092749;28;20068;-71
2023/09/12 09:07:43;;;;;;;11.65;5.72;;;;;;;;;;5093990;28;20461;-71
2023/09/12 09:10:18;;;;;;;13.82;6.55;;;;;;;;;;5076106;28;20060;-70
2023/09/12 09:12:46;;;;;;;10.52;5.68;;;;;;;;;;5059004;28;20136;-70
2023/09/12 09:15:25;;;;;;;8.27;5.75;;;;;;;;;;5092564;28;20109;-71
2023/09/12 09:17:53;;;;;;;13.05;5.28;;;;;;;;;;5092315;28;20055;-70
2023/09/12 09:20:34;;;;;;;10.07;5.25;;;;;;;;;;5092549;28;20385;-70
2023/09/12 09:23:07;;;;;;;11.73;5.00;;;;;;;;;;5093124;28;20051;-71
2023/09/12 09:25:33;;;;;;;7.80;4.90;;;;;;;;;;5093376;28;20043;-71
2023/09/12 09:28:01;;;;;;;9.15;4.97;;;;;;;;;;5092503;28;20036;-71
2023/09/12 09:30:40;;;;;;;11.18;5.25;;;;;;;;;;5058968;28;20075;-70
2023/09/12 09:33:06;;;;;;;6.68;4.88;;;;;;;;;;5092873;28;20039;-71
2023/09/12 09:35:32;;;;;;;13.88;4.40;;;;;;;;;;5075482;28;20405;-71
2023/09/12 09:37:58;;;;;;;7.63;4.45;;;;;;;;;;5093316;28;20427;-71
2023/09/12 09:40:24;;;;;;;9.07;4.13;;;;;;;;;;5092341;28;20089;-70
2023/09/12 09:42:53;;;;;;;4.25;3.78;;;;;;;;;;5076076;28;20109;-70
2023/09/12 09:45:19;;;;;;;8.20;4.07;;;;;;;;;;5092446;28;20163;-72
2023/09/12 09:47:44;;;;;;;17.75;5.13;;;;;;;;;;5091669;28;20060;-70
2023/09/12 09:50:14;;;;;;;11.23;4.35;;;;;;;;;;5091769;28;20035;-72
2023/09/12 09:52:39;;;;;;;10.45;4.75;;;;;;;;;;5070352;28;20043;-70
2023/09/12 09:55:13;;;;;;;10.77;5.07;;;;;;;;;;5091560;28;20115;-72
2023/09/12 09:57:39;;;;;;;10.98;3.67;;;;;;;;;;5089415;28;20040;-70
2023/09/12 10:00:08;;;;;;;8.88;3.78;;;;;;;;;;5091589;28;20497;-70
2023/09/12 10:02:35;;;;;;;9.40;3.63;;;;;;;;;;5092752;28;20379;-70
2023/09/12 10:05:04;;;;;;;11.65;4.82;;;;;;;;;;5091896;28;20075;-70
2023/09/12 10:07:32;;;;;;;6.55;4.13;;;;;;;;;;5074831;28;20067;-70
2023/09/12 10:09:59;;;;;;;11.43;3.75;;;;;;;;;;5092455;28;20056;-70
2023/09/12 10:12:25;;;;;;;6.68;3.63;;;;;;;;;;5091422;28;20462;-70
2023/09/12 10:14:51;;;;;;;4.40;3.20;;;;;;;;;;5091267;28;20188;-70
2023/09/12 10:17:18;;;;;;;5.57;3.40;;;;;;;;;;5091500;28;20454;-70
2023/09/12 10:19:54;;;;;;;4.82;3.72;;;;;;;;;;5092406;28;20455;-70
2023/09/12 10:22:22;;;;;;;7.57;3.70;;;;;;;;;;5091677;28;20051;-70
2023/09/12 10:24:48;;;;;;;7.28;4.20;;;;;;;;;;5093048;28;20036;-70
2023/09/12 10:27:15;;;;;;;6.68;3.90;;;;;;;;;;5093055;28;20073;-70
2023/09/12 10:29:40;;;;;;;7.00;3.83;;;;;;;;;;5076160;28;20043;-70
2023/09/12 10:32:08;;;;;;;9.57;4.10;;;;;;;;;;5074624;28;20032;-69
2023/09/12 10:34:34;;;;;;;6.05;3.90;;;;;;;;;;5092231;28;20363;-69
2023/09/12 10:37:00;;;;;;;7.25;4.10;;;;;;;;;;5090261;28;20044;-72
2023/09/12 10:39:27;;;;;;;6.30;4.28;;;;;;;;;;5039883;28;20044;-69
2023/09/12 10:41:54;;;;;;;6.10;3.50;;;;;;;;;;5056360;28;20063;-70
2023/09/12 10:44:21;;;;;;;5.30;3.60;;;;;;;;;;5071917;28;20040;-70
2023/09/12 10:46:48;;;;;;;6.53;3.50;;;;;;;;;;5086661;28;20044;-71
2023/09/12 10:49:15;;;;;;;10.43;3.70;;;;;;;;;;5089598;28;20039;-69
2023/09/12 10:51:41;;;;;;;6.38;3.47;;;;;;;;;;5089636;28;20036;-71
2023/09/12 10:54:10;;;;;;;6.80;3.90;;;;;;;;;;5089036;28;20040;-70
2023/09/12 10:56:36;;;;;;;5.20;3.80;;;;;;;;;;5072500;28;20055;-70
2023/09/12 10:59:09;;;;;;;7.57;4.25;;;;;;;;;;5072383;28;20047;-69
2023/09/12 11:01:35;;;;;;;4.47;3.63;;;;;;;;;;5089599;28;20032;-70
2023/09/12 11:04:27;;;;;;;4.55;3.40;;;;;;;;;;5055406;28;20052;-70
2023/09/12 11:06:53;;;;;;;3.70;3.40;;;;;;;;;;5047143;28;20044;-70
2023/09/12 11:09:22;;;;;;;3.75;3.45;;;;;;;;;;5073005;28;20067;-70
2023/09/12 11:11:49;;;;;;;6.78;4.50;;;;;;;;;;5072810;28;20056;-69
2023/09/12 11:14:18;;;;;;;6.72;3.92;;;;;;;;;;5073275;28;20048;-68
2023/09/12 11:17:04;;;;;;;6.10;3.55;;;;;;;;;;5073441;28;20109;-69
2023/09/12 11:19:42;;;;;;;7.65;3.80;;;;;;;;;;5059586;28;20032;-69
2023/09/12 11:22:20;;;;;;;7.72;4.20;;;;;;;;;;5073134;28;20044;-69
2023/09/12 11:24:47;;;;;;;8.63;4.90;;;;;;;;;;5090103;28;20056;-68
2023/09/12 11:27:12;;;;;;;6.07;4.95;;;;;;;;;;5073361;28;20365;-68
2023/09/12 11:29:39;;;;;;;7.03;4.25;;;;;;;;;;5072257;28;20051;-68
2023/09/12 11:32:06;;;;;;;6.07;4.20;;;;;;;;;;5089533;28;20138;-68
2023/09/12 11:34:40;;;;;;;8.85;4.22;;;;;;;;;;5073005;28;20044;-68
2023/09/12 11:37:06;;;;;;;7.03;4.20;;;;;;;;;;5091663;28;20038;-70
2023/09/12 11:39:33;;;;;;;6.63;4.13;;;;;;;;;;5090679;28;20040;-69
2023/09/12 11:42:00;;;;;;;7.78;4.43;;;;;;;;;;5091694;28;20479;-69
2023/09/12 11:44:26;;;;;;;12.25;5.38;;;;;;;;;;5073703;28;20181;-69
2023/09/12 11:46:52;;;;;;;8.52;5.57;;;;;;;;;;5091839;28;20054;-69
2023/09/12 11:49:19;;;;;;;11.18;5.60;;;;;;;;;;5074415;28;20485;-69
2023/09/12 11:51:51;;;;;;;12.18;5.78;;;;;;;;;;5091760;28;20050;-69
2023/09/12 11:54:18;;;;;;;8.93;4.57;;;;;;;;;;5087283;28;20097;-68
2023/09/12 11:56:45;;;;;;;8.45;5.10;;;;;;;;;;5093723;28;20046;-68
2023/09/12 11:59:10;;;;;;;8.65;5.10;;;;;;;;;;5093381;28;20039;-67
2023/09/12 12:01:36;;;;;;;7.40;4.90;;;;;;;;;;5094086;28;20461;-66
2023/09/12 12:04:02;;;;;;;8.32;4.75;;;;;;;;;;5074193;28;20040;-68
2023/09/12 12:06:30;;;;;;;7.88;4.88;;;;;;;;;;5093677;28;20043;-68
2023/09/12 12:08:56;;;;;;;13.32;7.47;;;;;;;;;;5095020;28;20489;-68
2023/09/12 12:11:21;;;;;;;11.40;4.63;;;;;;;;;;5056104;28;20060;-69
2023/09/12 12:13:47;;;;;;;8.32;5.78;;;;;;;;;;5023135;28;20403;-68
2023/09/12 12:16:16;;;;;;;10.25;5.55;;;;;;;;;;5057448;28;20187;-69
2023/09/12 12:18:42;;;;;;;11.52;4.80;;;;;;;;;;5075912;28;20044;-68
2023/09/12 12:21:08;;;;;;;10.82;5.30;;;;;;;;;;5074382;28;20409;-69
2023/09/12 12:23:35;;;;;;;9.10;4.28;;;;;;;;;;5055606;28;20063;-69
2023/09/12 12:26:10;;;;;;;10.20;5.15;;;;;;;;;;5055251;28;20479;-70
2023/09/12 12:28:36;;;;;;;6.65;4.57;;;;;;;;;;5056501;28;20032;-68
2023/09/12 12:31:02;;;;;;;17.30;6.40;;;;;;;;;;5038478;28;20607;-70
2023/09/12 12:33:28;;;;;;;12.63;5.85;;;;;;;;;;5022155;28;20036;-69
2023/09/12 12:36:04;;;;;;;19.02;6.80;;;;;;;;;;5071901;28;20386;-69
2023/09/12 12:38:34;;;;;;;10.48;5.50;;;;;;;;;;5069831;28;20028;-69
2023/09/12 12:41:00;;;;;;;14.60;5.40;;;;;;;;;;5055704;28;20037;-69
2023/09/12 12:43:27;;;;;;;19.90;5.80;;;;;;;;;;5091712;28;20050;-68
2023/09/12 12:45:53;;;;;;;9.27;5.18;;;;;;;;;;5076346;28;20047;-70
2023/09/12 12:48:29;;;;;;;9.32;4.82;;;;;;;;;;5093760;28;20115;-67
2023/09/12 12:50:55;;;;;;;10.23;5.07;;;;;;;;;;5094291;28;20036;-68
2023/09/12 12:53:36;;;;;;;12.75;5.07;;;;;;;;;;5095286;28;20135;-69
2023/09/12 12:56:02;;;;;;;7.30;4.97;;;;;;;;;;5094062;28;20481;-68
2023/09/12 12:58:28;;;;;;;6.20;4.68;;;;;;;;;;5075696;28;20039;-67
2023/09/12 13:00:54;;;;;;;10.88;5.28;;;;;;;;;;5075132;28;20465;-68
2023/09/12 13:03:21;;;;;;;13.27;4.68;;;;;;;;;;5092472;28;20048;-69
2023/09/12 13:05:46;;;;;;;7.35;4.70;;;;;;;;;;5091506;28;20043;-67
2023/09/12 13:08:12;;;;;;;9.35;4.70;;;;;;;;;;5075818;28;20315;-68
2023/09/12 13:10:37;;;;;;;6.57;4.60;;;;;;;;;;5076003;28;20192;-67
2023/09/12 13:13:04;;;;;;;10.07;4.85;;;;;;;;;;5059365;28;20032;-68
2023/09/12 13:15:29;;;;;;;7.28;4.28;;;;;;;;;;5075815;28;20046;-68
2023/09/12 13:17:56;;;;;;;9.00;4.40;;;;;;;;;;5093725;28;20032;-67
2023/09/12 13:20:21;;;;;;;11.52;4.38;;;;;;;;;;5092931;28;20134;-68
2023/09/12 13:22:47;;;;;;;5.75;4.65;;;;;;;;;;5092524;28;20047;-68
2023/09/12 13:25:13;;;;;;;7.13;4.40;;;;;;;;;;5092645;28;20044;-70
2023/09/12 13:27:38;;;;;;;12.07;4.20;;;;;;;;;;5075807;28;20040;-68
2023/09/12 13:30:05;;;;;;;4.88;4.20;;;;;;;;;;5075945;28;20036;-68
2023/09/12 13:32:33;;;;;;;5.15;3.85;;;;;;;;;;5093188;28;20466;-68
2023/09/12 13:34:59;;;;;;;6.32;4.30;;;;;;;;;;5094919;28;20027;-67
2023/09/12 13:37:27;;;;;;;10.20;4.25;;;;;;;;;;5094168;28;20462;-67
2023/09/12 13:39:53;;;;;;;5.30;4.25;;;;;;;;;;5094168;28;20040;-68
2023/09/12 13:42:19;;;;;;;5.38;4.28;;;;;;;;;;5092894;28;20067;-68
2023/09/12 13:44:46;;;;;;;8.60;4.28;;;;;;;;;;5092361;28;20055;-67
2023/09/12 13:47:12;;;;;;;9.73;4.30;;;;;;;;;;5086465;28;20425;-69
2023/09/12 13:49:38;;;;;;;6.85;4.20;;;;;;;;;;5089845;28;20058;-71
2023/09/12 13:52:04;;;;;;;10.13;4.20;;;;;;;;;;5107276;28;20425;-69
2023/09/12 13:54:31;;;;;;;11.80;4.80;;;;;;;;;;5033415;28;20051;-68
2023/09/12 13:56:57;;;;;;;6.95;4.38;;;;;;;;;;5016436;28;20139;-68
2023/09/12 13:59:23;;;;;;;11.25;4.25;;;;;;;;;;5033304;28;20126;-68
2023/09/12 14:01:49;;;;;;;7.07;4.40;;;;;;;;;;5050201;28;20037;-67
2023/09/12 14:04:16;;;;;;;7.50;4.50;;;;;;;;;;5049964;28;20499;-68
2023/09/12 14:06:42;;;;;;;10.88;4.47;;;;;;;;;;5018086;28;20036;-66
2023/09/12 14:09:10;;;;;;;8.45;4.10;;;;;;;;;;5032299;28;20565;-68
2023/09/12 14:11:37;;;;;;;11.52;4.28;;;;;;;;;;5053834;28;20057;-67
2023/09/12 14:14:05;;;;;;;17.08;4.50;;;;;;;;;;5034205;28;20368;-69
2023/09/12 14:16:31;;;;;;;16.77;4.15;;;;;;;;;;5050166;28;20044;-66
2023/09/12 14:18:58;;;;;;;9.32;4.18;;;;;;;;;;5026912;28;20046;-70
2023/09/12 14:21:24;;;;;;;10.32;5.00;;;;;;;;;;5029446;28;20052;-69
2023/09/12 14:23:50;;;;;;;10.65;4.25;;;;;;;;;;5024709;28;20087;-69